Portada
METAR-TAF:

METAR-TAF

Aeroports :

Saint-Pierre, Reunió

latitud: 21-20S, longitud: 055-29E, altitud: 52 m

Observació

L'informe es va fer fa 48 minuts, a les 19:30 UTC
Vent 4 kt del Est
Temperatura 23°C
Humitat 83%
Pressió 1017 hPa
Visibilitat 10 km o més

METAR: FMEP 261930Z AUTO 10004KT 9999 BKN060/// 23/20 Q1017

Hora: 00:18 (20:18 UTC)

Pronòstic

L'informe es va fer fa 9 hores i 18 minuts, a les 11:00 UTC
Pronòstic vàlid del 26 a les 12 UTC al 26 a les 21 UTC
Vent 4 kt amb direcció variable
Visibilitat 10 km o més
Núvols disperses a una alçada de 4000 ft
Evolucionant progressivament
l' 26 a les 13 UTC al 26 a les 15 UTC
Vent 12 kt del Est/Sud-Est

TAF: FMEP 261100Z 2612/2621 VRB04KT 9999 SCT040 BECMG 2613/2615 11012KT

Observacions i pronòstics meteorològics de més de 4000 aeroports (METAR i TAF).

Les estacions disponibles són els punts grocs i vermells al mapa.

Posi el ratolí al punt desitjat per veure el nom de l'estació.

Feu clic per veure les observacions i els pronòstics meteorològics.

Per canviar el mapa: feu clic els botons verds amb una creu de color negre per apropar; al botó verd amb un guió per allunyar la imatge; o en les fletxes verdes per a mapes adjacents.


METAR-TAF: